Time;durP1;ratioP1;P1;durP2;ratioP2;P2;SDS_P1;SDS_P2;PMS_P1;PMS_P2;Temp;Humidity;BMP_temperature;BMP_pressure;BME280_temperature;BME280_humidity;BME280_pressure;Samples;Min_cycle;Max_cycle;Signal;HPM_P1;HPM_P2
2021/07/12 00:00:31;;;;;;;12.50;9.80;;;;;;;;;;5057914;28;20465;-71
2021/07/12 00:03:00;;;;;;;13.20;9.50;;;;;;;;;;5058046;28;20526;-72
2021/07/12 00:05:28;;;;;;;13.77;10.40;;;;;;;;;;5057631;28;20523;-72
2021/07/12 00:07:56;;;;;;;12.30;8.67;;;;;;;;;;5057854;28;20461;-72
2021/07/12 00:10:24;;;;;;;11.00;9.30;;;;;;;;;;5058382;28;20493;-72
2021/07/12 00:12:52;;;;;;;11.10;9.37;;;;;;;;;;5057005;28;20465;-72
2021/07/12 00:15:22;;;;;;;13.10;9.33;;;;;;;;;;5057991;28;20469;-72
2021/07/12 00:17:50;;;;;;;11.73;9.87;;;;;;;;;;5057362;28;20465;-72
2021/07/12 00:20:18;;;;;;;11.40;9.67;;;;;;;;;;5057728;28;21033;-72
2021/07/12 00:22:47;;;;;;;11.93;10.63;;;;;;;;;;5057111;28;20462;-72
2021/07/12 00:25:15;;;;;;;12.07;10.73;;;;;;;;;;5057091;28;20522;-72
2021/07/12 00:27:43;;;;;;;10.87;8.70;;;;;;;;;;5057807;28;20469;-72
2021/07/12 00:30:12;;;;;;;10.60;9.30;;;;;;;;;;5056562;28;20485;-73
2021/07/12 00:32:41;;;;;;;11.13;8.63;;;;;;;;;;5056101;28;20477;-72
2021/07/12 00:35:11;;;;;;;12.20;9.70;;;;;;;;;;5056347;28;20869;-73
2021/07/12 00:37:39;;;;;;;12.70;10.60;;;;;;;;;;5056247;28;20456;-72
2021/07/12 00:40:08;;;;;;;10.67;9.27;;;;;;;;;;5056401;28;20466;-73
2021/07/12 00:42:36;;;;;;;18.00;11.30;;;;;;;;;;5056764;28;20843;-72
2021/07/12 00:45:04;;;;;;;12.97;10.50;;;;;;;;;;5056134;28;20473;-72
2021/07/12 00:47:32;;;;;;;12.77;10.10;;;;;;;;;;5056993;28;20476;-72
2021/07/12 00:50:01;;;;;;;12.77;11.00;;;;;;;;;;5056808;28;20736;-72
2021/07/12 00:52:29;;;;;;;11.90;9.67;;;;;;;;;;5056797;28;20759;-72
2021/07/12 00:54:57;;;;;;;12.40;10.03;;;;;;;;;;5057223;28;20461;-73
2021/07/12 00:57:25;;;;;;;12.93;11.03;;;;;;;;;;5056931;28;20465;-72
2021/07/12 00:59:53;;;;;;;12.40;11.10;;;;;;;;;;5056860;28;20461;-72
2021/07/12 01:02:21;;;;;;;13.00;10.77;;;;;;;;;;5056888;28;20522;-72
2021/07/12 01:04:49;;;;;;;12.83;10.50;;;;;;;;;;5056739;28;20461;-72
2021/07/12 01:07:18;;;;;;;12.03;10.00;;;;;;;;;;5058391;28;20556;-72
2021/07/12 01:09:46;;;;;;;13.43;11.00;;;;;;;;;;5057007;28;20929;-72
2021/07/12 01:12:19;;;;;;;13.10;10.67;;;;;;;;;;5058912;28;20931;-72
2021/07/12 01:14:50;;;;;;;11.97;10.50;;;;;;;;;;5056684;28;20457;-72
2021/07/12 01:17:21;;;;;;;13.63;9.77;;;;;;;;;;5058030;28;20883;-72
2021/07/12 01:20:14;;;;;;;12.97;11.30;;;;;;;;;;5057813;28;20461;-72
2021/07/12 01:23:03;;;;;;;13.83;10.10;;;;;;;;;;5034058;28;20495;-72
2021/07/12 01:25:57;;;;;;;13.07;10.30;;;;;;;;;;5049020;28;20477;-72
2021/07/12 01:28:49;;;;;;;15.97;11.80;;;;;;;;;;4998747;28;20719;-72
2021/07/12 01:31:26;;;;;;;12.40;9.67;;;;;;;;;;5056098;28;20497;-72
2021/07/12 01:34:00;;;;;;;11.33;10.10;;;;;;;;;;5056302;28;20518;-72
2021/07/12 01:36:32;;;;;;;16.00;10.80;;;;;;;;;;5056182;28;20467;-71
2021/07/12 01:39:01;;;;;;;13.53;10.53;;;;;;;;;;5057747;28;20804;-72
2021/07/12 01:41:33;;;;;;;12.80;10.70;;;;;;;;;;5056928;28;20951;-72
2021/07/12 01:44:03;;;;;;;11.00;9.33;;;;;;;;;;5061919;28;20465;-72
2021/07/12 01:46:33;;;;;;;14.47;10.70;;;;;;;;;;5061866;28;20992;-72
2021/07/12 01:49:05;;;;;;;14.53;10.70;;;;;;;;;;5060774;28;20518;-72
2021/07/12 01:51:34;;;;;;;12.83;10.53;;;;;;;;;;5061512;28;20532;-72
2021/07/12 01:54:08;;;;;;;12.87;10.90;;;;;;;;;;5059584;28;20460;-72
2021/07/12 01:56:38;;;;;;;13.17;9.30;;;;;;;;;;5060000;28;20946;-72
2021/07/12 01:59:10;;;;;;;12.80;10.60;;;;;;;;;;5060003;28;20870;-72
2021/07/12 02:01:39;;;;;;;11.30;9.57;;;;;;;;;;5059837;28;20790;-72
2021/07/12 02:04:09;;;;;;;18.40;10.90;;;;;;;;;;5060007;28;20465;-72
2021/07/12 02:06:38;;;;;;;15.20;11.80;;;;;;;;;;5059693;28;20461;-72
2021/07/12 02:09:07;;;;;;;11.80;9.93;;;;;;;;;;5059716;28;20862;-72
2021/07/12 02:11:36;;;;;;;12.67;10.07;;;;;;;;;;5059535;28;20489;-72
2021/07/12 02:14:05;;;;;;;12.50;10.40;;;;;;;;;;5059658;28;20746;-72
2021/07/12 02:16:33;;;;;;;13.03;11.80;;;;;;;;;;5059018;28;20510;-72
2021/07/12 02:19:02;;;;;;;13.87;10.37;;;;;;;;;;5059579;28;20526;-72
2021/07/12 02:21:34;;;;;;;15.43;10.80;;;;;;;;;;5060503;28;20465;-72
2021/07/12 02:24:02;;;;;;;14.50;10.07;;;;;;;;;;5059618;28;20461;-72
2021/07/12 02:26:30;;;;;;;11.83;10.40;;;;;;;;;;5060944;28;20457;-72
2021/07/12 02:28:58;;;;;;;12.87;11.47;;;;;;;;;;5060717;28;20481;-72
2021/07/12 02:31:26;;;;;;;15.27;10.20;;;;;;;;;;5059600;28;20485;-71
2021/07/12 02:33:54;;;;;;;12.73;11.30;;;;;;;;;;5060690;28;20846;-72
2021/07/12 02:36:22;;;;;;;13.67;10.87;;;;;;;;;;5059485;28;20461;-72
2021/07/12 02:38:52;;;;;;;14.87;10.33;;;;;;;;;;5059210;28;20453;-72
2021/07/12 02:41:20;;;;;;;14.23;10.57;;;;;;;;;;5058819;28;20511;-72
2021/07/12 02:43:49;;;;;;;14.10;11.20;;;;;;;;;;5059135;28;20465;-72
2021/07/12 02:46:17;;;;;;;12.60;10.23;;;;;;;;;;5059275;28;20461;-72
2021/07/12 02:48:45;;;;;;;13.03;10.93;;;;;;;;;;5059278;28;20465;-72
2021/07/12 02:51:13;;;;;;;14.17;10.50;;;;;;;;;;5059040;28;20493;-72
2021/07/12 02:53:45;;;;;;;12.60;9.23;;;;;;;;;;5058255;28;20523;-72
2021/07/12 02:56:15;;;;;;;13.07;10.60;;;;;;;;;;5059777;28;20469;-72
2021/07/12 02:58:43;;;;;;;14.63;10.43;;;;;;;;;;5058967;28;20478;-72
2021/07/12 03:01:10;;;;;;;12.57;10.27;;;;;;;;;;5060051;28;20480;-72
2021/07/12 03:03:38;;;;;;;11.40;9.90;;;;;;;;;;5059308;28;20527;-72
2021/07/12 03:06:10;;;;;;;19.43;10.80;;;;;;;;;;5059047;28;20508;-72
2021/07/12 03:08:41;;;;;;;10.87;9.77;;;;;;;;;;5058640;28;20461;-72
2021/07/12 03:11:11;;;;;;;14.40;10.37;;;;;;;;;;5058643;28;20563;-72
2021/07/12 03:13:46;;;;;;;15.20;11.60;;;;;;;;;;5058723;28;21114;-72
2021/07/12 03:16:14;;;;;;;12.70;10.77;;;;;;;;;;5058077;28;20530;-72
2021/07/12 03:18:43;;;;;;;13.27;10.77;;;;;;;;;;5059012;28;20486;-72
2021/07/12 03:21:11;;;;;;;14.17;10.50;;;;;;;;;;5059101;28;20717;-72
2021/07/12 03:23:41;;;;;;;11.40;9.80;;;;;;;;;;5058634;28;20457;-72
2021/07/12 03:26:10;;;;;;;16.10;11.43;;;;;;;;;;5058340;28;20468;-72
2021/07/12 03:28:39;;;;;;;11.70;9.90;;;;;;;;;;5058188;28;20449;-72
2021/07/12 03:31:09;;;;;;;13.13;10.33;;;;;;;;;;5058126;28;20497;-72
2021/07/12 03:33:38;;;;;;;13.67;11.33;;;;;;;;;;5058039;28;20465;-72
2021/07/12 03:36:06;;;;;;;14.30;10.47;;;;;;;;;;5058570;28;20946;-72
2021/07/12 03:38:34;;;;;;;12.33;9.70;;;;;;;;;;5058230;28;20453;-72
2021/07/12 03:41:02;;;;;;;13.87;11.30;;;;;;;;;;5058987;28;20472;-72
2021/07/12 03:43:30;;;;;;;16.70;10.80;;;;;;;;;;5059705;28;20504;-72
2021/07/12 03:46:01;;;;;;;14.43;10.30;;;;;;;;;;5057798;28;20462;-73
2021/07/12 03:48:37;;;;;;;12.50;10.23;;;;;;;;;;5059477;28;20749;-72
2021/07/12 03:51:05;;;;;;;12.50;10.20;;;;;;;;;;5057946;28;20480;-72
2021/07/12 03:53:33;;;;;;;14.20;10.73;;;;;;;;;;5057901;28;20462;-72
2021/07/12 03:56:01;;;;;;;17.13;11.00;;;;;;;;;;5059147;28;20462;-72
2021/07/12 03:58:29;;;;;;;12.40;10.33;;;;;;;;;;5058086;28;20468;-72
2021/07/12 04:00:57;;;;;;;13.20;10.23;;;;;;;;;;5059252;28;20546;-72
2021/07/12 04:03:24;;;;;;;13.77;10.77;;;;;;;;;;5059923;28;20469;-72
2021/07/12 04:05:53;;;;;;;17.03;10.97;;;;;;;;;;5057831;28;20453;-72
2021/07/12 04:08:21;;;;;;;15.27;10.93;;;;;;;;;;5057773;28;20507;-72
2021/07/12 04:10:52;;;;;;;12.47;10.50;;;;;;;;;;5057360;28;20493;-72
2021/07/12 04:13:20;;;;;;;15.00;10.30;;;;;;;;;;5057510;28;20457;-72
2021/07/12 04:15:48;;;;;;;11.40;9.87;;;;;;;;;;5055719;28;20469;-73
2021/07/12 04:18:15;;;;;;;13.07;10.10;;;;;;;;;;5057355;28;20448;-72
2021/07/12 04:20:43;;;;;;;13.07;10.97;;;;;;;;;;5056755;28;20534;-72
2021/07/12 04:23:13;;;;;;;12.93;10.60;;;;;;;;;;5056989;28;20711;-72
2021/07/12 04:25:40;;;;;;;12.90;9.57;;;;;;;;;;5057448;28;20492;-73
2021/07/12 04:28:08;;;;;;;12.30;10.30;;;;;;;;;;5057107;28;20469;-72
2021/07/12 04:30:36;;;;;;;12.43;10.10;;;;;;;;;;5057018;28;20574;-72
2021/07/12 04:33:04;;;;;;;12.77;9.40;;;;;;;;;;5057857;28;20461;-72
2021/07/12 04:35:32;;;;;;;12.57;10.33;;;;;;;;;;5057044;28;20469;-73
2021/07/12 04:38:00;;;;;;;13.53;10.20;;;;;;;;;;5056958;28;20526;-73
2021/07/12 04:40:29;;;;;;;12.00;9.90;;;;;;;;;;5057455;28;20515;-73
2021/07/12 04:42:58;;;;;;;11.00;9.57;;;;;;;;;;5056502;28;20441;-73
2021/07/12 04:45:27;;;;;;;11.63;8.67;;;;;;;;;;5055704;28;20473;-73
2021/07/12 04:47:55;;;;;;;12.60;10.10;;;;;;;;;;5055652;28;20869;-72
2021/07/12 04:50:22;;;;;;;12.60;10.63;;;;;;;;;;5055624;28;20781;-72
2021/07/12 04:52:50;;;;;;;17.60;10.23;;;;;;;;;;5055661;28;20465;-73
2021/07/12 04:55:18;;;;;;;15.03;10.77;;;;;;;;;;5056411;28;20461;-73
2021/07/12 04:57:48;;;;;;;14.03;10.70;;;;;;;;;;5055317;28;20464;-73
2021/07/12 05:00:21;;;;;;;11.00;9.80;;;;;;;;;;5052201;28;20462;-73
2021/07/12 05:02:52;;;;;;;11.33;8.97;;;;;;;;;;5055795;28;20820;-73
2021/07/12 05:05:20;;;;;;;13.60;9.77;;;;;;;;;;5053750;28;20449;-74
2021/07/12 05:07:49;;;;;;;10.80;8.43;;;;;;;;;;5055640;28;20453;-73
2021/07/12 05:10:17;;;;;;;12.70;7.90;;;;;;;;;;5055043;28;20497;-73
2021/07/12 05:12:45;;;;;;;9.10;7.43;;;;;;;;;;5055038;28;20485;-73
2021/07/12 05:15:14;;;;;;;16.73;7.80;;;;;;;;;;5053207;28;20461;-73
2021/07/12 05:17:43;;;;;;;13.40;8.20;;;;;;;;;;5054238;28;20734;-73
2021/07/12 05:20:12;;;;;;;10.07;7.50;;;;;;;;;;5053622;28;20469;-73
2021/07/12 05:22:39;;;;;;;10.77;8.87;;;;;;;;;;5052657;28;20465;-73
2021/07/12 05:25:09;;;;;;;12.00;8.80;;;;;;;;;;5052479;28;20808;-72
2021/07/12 05:27:36;;;;;;;12.50;8.13;;;;;;;;;;5053362;28;20800;-72
2021/07/12 05:30:06;;;;;;;9.53;7.70;;;;;;;;;;5054292;28;20473;-72
2021/07/12 05:32:36;;;;;;;12.00;7.83;;;;;;;;;;5052193;28;20492;-72
2021/07/12 05:35:07;;;;;;;13.13;8.27;;;;;;;;;;5052671;28;20466;-72
2021/07/12 05:37:34;;;;;;;12.87;7.10;;;;;;;;;;5053059;28;20605;-72
2021/07/12 05:40:02;;;;;;;10.30;8.13;;;;;;;;;;5054151;28;20534;-72
2021/07/12 05:42:30;;;;;;;12.10;8.20;;;;;;;;;;5053959;28;20515;-71
2021/07/12 05:44:59;;;;;;;11.63;7.80;;;;;;;;;;5055120;28;20519;-72
2021/07/12 05:47:27;;;;;;;9.50;7.57;;;;;;;;;;5054413;28;20531;-72
2021/07/12 05:49:56;;;;;;;8.63;7.20;;;;;;;;;;5053929;28;20476;-72
2021/07/12 05:52:24;;;;;;;9.80;7.03;;;;;;;;;;5053895;28;20823;-72
2021/07/12 05:54:52;;;;;;;9.90;7.50;;;;;;;;;;5053518;28;20730;-72
2021/07/12 05:57:20;;;;;;;13.80;8.10;;;;;;;;;;5052240;28;20863;-71
2021/07/12 05:59:47;;;;;;;8.00;7.20;;;;;;;;;;5053668;28;20869;-71
2021/07/12 06:02:15;;;;;;;10.80;7.50;;;;;;;;;;5052935;28;20971;-71
2021/07/12 06:04:44;;;;;;;9.73;7.60;;;;;;;;;;5052723;28;20527;-71
2021/07/12 06:07:14;;;;;;;12.40;7.50;;;;;;;;;;5053647;28;20830;-71
2021/07/12 06:09:41;;;;;;;9.83;7.40;;;;;;;;;;5054150;28;20833;-71
2021/07/12 06:12:09;;;;;;;10.97;7.67;;;;;;;;;;5042580;28;20572;-73
2021/07/12 06:14:38;;;;;;;14.93;7.33;;;;;;;;;;5041101;28;20469;-73
2021/07/12 06:17:06;;;;;;;11.60;8.90;;;;;;;;;;5054273;28;20910;-73
2021/07/12 06:19:39;;;;;;;9.33;7.73;;;;;;;;;;5053298;28;20501;-73
2021/07/12 06:22:07;;;;;;;11.20;8.17;;;;;;;;;;5050123;28;20441;-73
2021/07/12 06:24:37;;;;;;;11.60;8.40;;;;;;;;;;5053003;28;20527;-73
2021/07/12 06:27:05;;;;;;;10.17;7.87;;;;;;;;;;5053212;28;20461;-73
2021/07/12 06:29:32;;;;;;;9.33;7.90;;;;;;;;;;5055180;28;20472;-72
2021/07/12 06:32:00;;;;;;;9.07;7.23;;;;;;;;;;5053403;28;20488;-73
2021/07/12 06:34:28;;;;;;;11.53;8.10;;;;;;;;;;5057028;28;20542;-72
2021/07/12 06:36:56;;;;;;;10.73;7.30;;;;;;;;;;5057744;28;20454;-72
2021/07/12 06:39:26;;;;;;;10.50;8.27;;;;;;;;;;5057065;28;20460;-72
2021/07/12 06:41:56;;;;;;;9.33;7.37;;;;;;;;;;5057915;28;20461;-71
2021/07/12 06:44:23;;;;;;;12.40;9.07;;;;;;;;;;5057155;28;20630;-72
2021/07/12 06:46:51;;;;;;;10.20;7.80;;;;;;;;;;5056625;28;20462;-72
2021/07/12 06:49:22;;;;;;;10.87;8.30;;;;;;;;;;5056974;28;20791;-72
2021/07/12 06:51:50;;;;;;;9.13;7.93;;;;;;;;;;5058341;28;20917;-72
2021/07/12 06:54:18;;;;;;;9.73;8.67;;;;;;;;;;5057169;28;20467;-71
2021/07/12 06:56:46;;;;;;;10.77;9.33;;;;;;;;;;5057497;28;20469;-71
2021/07/12 06:59:15;;;;;;;9.53;8.17;;;;;;;;;;5057232;28;21048;-71
2021/07/12 07:01:44;;;;;;;10.23;8.63;;;;;;;;;;5057017;28;20776;-71
2021/07/12 07:04:12;;;;;;;9.67;8.50;;;;;;;;;;5057821;28;20456;-71
2021/07/12 07:06:39;;;;;;;9.97;8.40;;;;;;;;;;5057091;28;20477;-72
2021/07/12 07:09:07;;;;;;;9.17;7.87;;;;;;;;;;5042402;28;20453;-71
2021/07/12 07:11:36;;;;;;;9.83;7.83;;;;;;;;;;5056312;28;20489;-71
2021/07/12 07:14:10;;;;;;;12.47;9.10;;;;;;;;;;5056995;28;20458;-71
2021/07/12 07:16:46;;;;;;;12.13;8.80;;;;;;;;;;5055914;28;20725;-72
2021/07/12 07:19:17;;;;;;;9.60;8.60;;;;;;;;;;5055162;28;20899;-72
2021/07/12 07:21:51;;;;;;;9.40;8.13;;;;;;;;;;5056472;28;20487;-72
2021/07/12 07:24:19;;;;;;;10.53;9.10;;;;;;;;;;5055932;28;20508;-72
2021/07/12 07:26:48;;;;;;;12.40;8.73;;;;;;;;;;5058142;28;20462;-72
2021/07/12 07:29:16;;;;;;;10.10;9.10;;;;;;;;;;5057577;28;20445;-71
2021/07/12 07:31:46;;;;;;;11.87;9.10;;;;;;;;;;5058342;28;20499;-71
2021/07/12 07:34:14;;;;;;;9.53;8.37;;;;;;;;;;5055571;28;20464;-72
2021/07/12 07:36:44;;;;;;;10.03;9.03;;;;;;;;;;5056359;28;20461;-71
2021/07/12 07:39:12;;;;;;;11.03;8.23;;;;;;;;;;5055751;28;20816;-71
2021/07/12 07:41:40;;;;;;;9.40;7.63;;;;;;;;;;5055286;28;20469;-71
2021/07/12 07:44:08;;;;;;;9.63;8.30;;;;;;;;;;5054154;28;20449;-71
2021/07/12 07:46:37;;;;;;;10.97;8.50;;;;;;;;;;5055273;28;20558;-72
2021/07/12 07:49:07;;;;;;;8.80;7.83;;;;;;;;;;5055364;28;20905;-71
2021/07/12 07:51:36;;;;;;;9.60;7.57;;;;;;;;;;5055830;28;20485;-71
2021/07/12 07:54:05;;;;;;;11.30;7.77;;;;;;;;;;5056438;28;20487;-71
2021/07/12 07:56:36;;;;;;;8.83;7.73;;;;;;;;;;5052094;28;20529;-73
2021/07/12 07:59:04;;;;;;;9.30;7.17;;;;;;;;;;5055190;28;20457;-71
2021/07/12 08:01:34;;;;;;;9.60;6.70;;;;;;;;;;5060421;28;20464;-71
2021/07/12 08:04:03;;;;;;;7.80;6.50;;;;;;;;;;5052999;28;20834;-71
2021/07/12 08:06:33;;;;;;;13.23;8.03;;;;;;;;;;5035842;28;20889;-71
2021/07/12 08:09:01;;;;;;;8.10;7.00;;;;;;;;;;5055703;28;20860;-72
2021/07/12 08:11:29;;;;;;;8.97;7.13;;;;;;;;;;5055056;28;20469;-71
2021/07/12 08:13:57;;;;;;;7.60;6.13;;;;;;;;;;5055492;28;20457;-71
2021/07/12 08:16:31;;;;;;;8.47;7.07;;;;;;;;;;5054963;28;20834;-71
2021/07/12 08:18:59;;;;;;;7.30;6.20;;;;;;;;;;5056061;28;20467;-70
2021/07/12 08:21:27;;;;;;;9.03;6.53;;;;;;;;;;5055368;28;20481;-71
2021/07/12 08:23:57;;;;;;;10.90;6.40;;;;;;;;;;5055152;28;20557;-70
2021/07/12 08:26:24;;;;;;;8.17;7.03;;;;;;;;;;5055779;28;20500;-71
2021/07/12 08:28:52;;;;;;;10.63;7.67;;;;;;;;;;5057076;28;20484;-73
2021/07/12 08:31:20;;;;;;;8.87;7.40;;;;;;;;;;5054563;28;20780;-71
2021/07/12 08:33:48;;;;;;;8.53;6.33;;;;;;;;;;5057041;28;20492;-72
2021/07/12 08:36:16;;;;;;;8.20;5.87;;;;;;;;;;5057231;28;20559;-71
2021/07/12 08:38:44;;;;;;;8.83;6.73;;;;;;;;;;5056267;28;20507;-72
2021/07/12 08:41:14;;;;;;;7.47;6.13;;;;;;;;;;5057093;28;20465;-73
2021/07/12 08:43:42;;;;;;;8.87;6.90;;;;;;;;;;5051817;28;20519;-72
2021/07/12 08:46:10;;;;;;;7.43;5.90;;;;;;;;;;5055709;28;20783;-72
2021/07/12 08:48:38;;;;;;;9.50;7.13;;;;;;;;;;5056523;28;20453;-72
2021/07/12 08:51:06;;;;;;;7.33;6.17;;;;;;;;;;5054030;28;20470;-72
2021/07/12 08:53:34;;;;;;;6.83;5.57;;;;;;;;;;5053698;28;20482;-72
2021/07/12 08:56:05;;;;;;;8.60;6.63;;;;;;;;;;5053684;28;20457;-72
2021/07/12 08:58:36;;;;;;;8.50;6.50;;;;;;;;;;5050570;28;20545;-72
2021/07/12 09:01:10;;;;;;;8.40;6.30;;;;;;;;;;5056423;28;20556;-71
2021/07/12 09:03:39;;;;;;;7.67;6.87;;;;;;;;;;5056804;28;20454;-72
2021/07/12 09:06:09;;;;;;;6.23;5.10;;;;;;;;;;5060056;28;20465;-72
2021/07/12 09:08:39;;;;;;;9.03;5.07;;;;;;;;;;5055600;28;20492;-72
2021/07/12 09:11:10;;;;;;;7.20;5.97;;;;;;;;;;5043904;28;20833;-73
2021/07/12 09:13:53;;;;;;;7.37;4.80;;;;;;;;;;5053984;28;20551;-73
2021/07/12 09:16:48;;;;;;;6.87;4.77;;;;;;;;;;5055506;28;20805;-73
2021/07/12 09:19:19;;;;;;;6.97;5.27;;;;;;;;;;5054215;28;20468;-72
2021/07/12 09:21:54;;;;;;;9.70;5.20;;;;;;;;;;5054153;28;21146;-73
2021/07/12 09:24:28;;;;;;;6.70;5.10;;;;;;;;;;5052968;28;20536;-71
2021/07/12 09:26:58;;;;;;;8.67;5.47;;;;;;;;;;5053827;28;20453;-72
2021/07/12 09:29:28;;;;;;;5.70;4.70;;;;;;;;;;5053969;28;20891;-72
2021/07/12 09:31:56;;;;;;;9.10;6.40;;;;;;;;;;5039908;28;20457;-72
2021/07/12 09:34:27;;;;;;;6.20;4.97;;;;;;;;;;5053050;28;20457;-73
2021/07/12 09:36:59;;;;;;;9.93;6.57;;;;;;;;;;5035320;28;20445;-73
2021/07/12 09:39:32;;;;;;;6.40;5.00;;;;;;;;;;5065489;28;20453;-72
2021/07/12 09:42:01;;;;;;;6.10;4.60;;;;;;;;;;5050578;28;20472;-73
2021/07/12 09:44:32;;;;;;;6.90;5.50;;;;;;;;;;5053335;28;20442;-73
2021/07/12 09:47:07;;;;;;;6.70;4.70;;;;;;;;;;5053598;28;20480;-73
2021/07/12 09:49:45;;;;;;;7.97;6.57;;;;;;;;;;5052082;28;20710;-71
2021/07/12 09:52:14;;;;;;;5.93;4.50;;;;;;;;;;5052430;28;20485;-73
2021/07/12 09:54:48;;;;;;;5.93;4.33;;;;;;;;;;5054309;28;20489;-72
2021/07/12 09:57:18;;;;;;;11.10;4.97;;;;;;;;;;5052496;28;20472;-73
2021/07/12 10:00:04;;;;;;;7.97;4.60;;;;;;;;;;5053721;28;20511;-72
2021/07/12 10:02:35;;;;;;;6.87;4.33;;;;;;;;;;5050798;28;20476;-72
2021/07/12 10:05:06;;;;;;;5.70;4.20;;;;;;;;;;5056381;28;20450;-72
2021/07/12 10:07:35;;;;;;;9.50;4.17;;;;;;;;;;5046850;28;20457;-72
2021/07/12 10:10:13;;;;;;;9.33;5.03;;;;;;;;;;5060596;28;20456;-73
2021/07/12 10:12:41;;;;;;;5.37;4.67;;;;;;;;;;5049076;28;20487;-73
2021/07/12 10:15:10;;;;;;;9.30;4.90;;;;;;;;;;5057016;28;20858;-73
2021/07/12 10:17:42;;;;;;;6.23;4.60;;;;;;;;;;5058908;28;20945;-73
2021/07/12 10:20:11;;;;;;;7.63;5.47;;;;;;;;;;5054738;28;20488;-73
2021/07/12 10:22:42;;;;;;;6.83;4.90;;;;;;;;;;5055896;28;20879;-72
2021/07/12 10:25:12;;;;;;;5.70;4.50;;;;;;;;;;5056976;28;20769;-73
2021/07/12 10:27:49;;;;;;;6.10;3.87;;;;;;;;;;5060231;28;20552;-72
2021/07/12 10:30:23;;;;;;;5.73;4.77;;;;;;;;;;5056240;28;20550;-73
2021/07/12 10:32:55;;;;;;;6.30;4.50;;;;;;;;;;5050844;28;20551;-72
2021/07/12 10:35:38;;;;;;;6.43;5.23;;;;;;;;;;5057205;28;20453;-73
2021/07/12 10:38:08;;;;;;;9.03;4.83;;;;;;;;;;5053311;28;20461;-73
2021/07/12 10:40:46;;;;;;;7.17;4.23;;;;;;;;;;5048512;28;20445;-73
2021/07/12 10:43:36;;;;;;;7.27;4.53;;;;;;;;;;5051879;28;20473;-73
2021/07/12 10:46:06;;;;;;;6.90;4.73;;;;;;;;;;5057052;28;20748;-73
2021/07/12 10:48:36;;;;;;;5.27;4.40;;;;;;;;;;5056985;28;20517;-72
2021/07/12 10:51:25;;;;;;;5.50;4.37;;;;;;;;;;5055926;28;20464;-73
2021/07/12 10:53:59;;;;;;;12.83;4.83;;;;;;;;;;5050452;28;20479;-73
2021/07/12 10:56:44;;;;;;;6.00;3.77;;;;;;;;;;5056354;28;20780;-72
2021/07/12 10:59:27;;;;;;;6.07;4.37;;;;;;;;;;5055853;28;20461;-73
2021/07/12 11:01:55;;;;;;;6.67;3.73;;;;;;;;;;5055398;28;20795;-73
2021/07/12 11:04:39;;;;;;;4.70;3.80;;;;;;;;;;5057067;28;20472;-73
2021/07/12 11:07:45;;;;;;;5.90;4.47;;;;;;;;;;5057232;28;20512;-75
2021/07/12 11:10:31;;;;;;;6.60;4.37;;;;;;;;;;4953085;28;20880;-74
2021/07/12 11:13:00;;;;;;;5.77;4.00;;;;;;;;;;5050727;28;20500;-73
2021/07/12 11:15:39;;;;;;;5.83;4.30;;;;;;;;;;5054135;28;20450;-75
2021/07/12 11:18:12;;;;;;;5.30;3.60;;;;;;;;;;5054247;28;20457;-73
2021/07/12 11:21:04;;;;;;;7.33;4.07;;;;;;;;;;5052730;28;20484;-73
2021/07/12 11:23:44;;;;;;;10.10;4.40;;;;;;;;;;5055458;28;20457;-74
2021/07/12 11:26:31;;;;;;;7.87;5.50;;;;;;;;;;5055360;28;20485;-73
2021/07/12 11:28:59;;;;;;;5.40;4.00;;;;;;;;;;5054999;28;20950;-72
2021/07/12 11:31:49;;;;;;;6.23;4.10;;;;;;;;;;5055869;28;20536;-75
2021/07/12 11:34:18;;;;;;;6.50;4.10;;;;;;;;;;5048727;28;20481;-73
2021/07/12 11:36:50;;;;;;;10.67;4.97;;;;;;;;;;5056388;28;20457;-73
2021/07/12 11:39:23;;;;;;;4.73;3.80;;;;;;;;;;5059039;28;20457;-72
2021/07/12 11:41:51;;;;;;;6.50;4.03;;;;;;;;;;5056790;28;20461;-73
2021/07/12 11:44:22;;;;;;;7.53;4.57;;;;;;;;;;5058817;28;20521;-73
2021/07/12 11:46:50;;;;;;;7.20;4.60;;;;;;;;;;5066193;28;20468;-74
2021/07/12 11:49:19;;;;;;;6.17;5.03;;;;;;;;;;5066571;28;20549;-74
2021/07/12 11:51:47;;;;;;;5.50;4.50;;;;;;;;;;5058087;28;20504;-73
2021/07/12 11:54:16;;;;;;;5.10;3.87;;;;;;;;;;5064651;28;20493;-73
2021/07/12 11:56:58;;;;;;;5.67;4.03;;;;;;;;;;5056313;28;20858;-73
2021/07/12 11:59:27;;;;;;;5.20;3.57;;;;;;;;;;5064919;28;20445;-73
2021/07/12 12:01:58;;;;;;;7.40;4.23;;;;;;;;;;5046912;28;20616;-74
2021/07/12 12:04:42;;;;;;;9.40;5.13;;;;;;;;;;5054924;28;20503;-74
2021/07/12 12:07:20;;;;;;;5.87;4.20;;;;;;;;;;5057141;28;20461;-73
2021/07/12 12:09:52;;;;;;;9.87;7.87;;;;;;;;;;5037030;28;20460;-74
2021/07/12 12:12:26;;;;;;;7.90;5.70;;;;;;;;;;5056925;28;20902;-74
2021/07/12 12:14:57;;;;;;;5.53;4.10;;;;;;;;;;5056979;28;20544;-74
2021/07/12 12:17:25;;;;;;;6.63;4.33;;;;;;;;;;5058585;28;20549;-74
2021/07/12 12:20:05;;;;;;;6.50;4.40;;;;;;;;;;5058869;28;20483;-74
2021/07/12 12:22:37;;;;;;;7.30;5.00;;;;;;;;;;5038472;28;20468;-74
2021/07/12 12:25:11;;;;;;;6.70;4.80;;;;;;;;;;5055128;28;20458;-75
2021/07/12 12:27:42;;;;;;;5.47;4.17;;;;;;;;;;5053547;28;20881;-74
2021/07/12 12:30:18;;;;;;;4.73;3.40;;;;;;;;;;5056051;28;20461;-74
2021/07/12 12:32:53;;;;;;;7.97;4.73;;;;;;;;;;5052107;28;20533;-75
2021/07/12 12:35:44;;;;;;;6.90;4.80;;;;;;;;;;5055798;28;20461;-72
2021/07/12 12:38:14;;;;;;;6.27;4.00;;;;;;;;;;5035964;28;20469;-74
2021/07/12 12:40:59;;;;;;;7.03;5.20;;;;;;;;;;5040551;28;20466;-73
2021/07/12 12:43:30;;;;;;;6.27;4.63;;;;;;;;;;5055803;28;20907;-74
2021/07/12 12:46:01;;;;;;;6.07;4.03;;;;;;;;;;5055362;28;20469;-73
2021/07/12 12:48:36;;;;;;;6.10;4.07;;;;;;;;;;5059039;28;20540;-74
2021/07/12 12:51:23;;;;;;;6.60;4.57;;;;;;;;;;5037901;28;20466;-73
2021/07/12 12:54:08;;;;;;;8.37;4.50;;;;;;;;;;5055077;28;20485;-76
2021/07/12 12:56:52;;;;;;;6.83;4.00;;;;;;;;;;5039455;28;20541;-74
2021/07/12 12:59:30;;;;;;;5.70;4.50;;;;;;;;;;5054254;28;20456;-73
2021/07/12 13:02:24;;;;;;;5.30;4.23;;;;;;;;;;5059175;28;20487;-74
2021/07/12 13:04:55;;;;;;;6.60;4.70;;;;;;;;;;5023369;28;20595;-74
2021/07/12 13:07:24;;;;;;;7.17;4.63;;;;;;;;;;5052109;28;20453;-73
2021/07/12 13:10:02;;;;;;;9.80;5.00;;;;;;;;;;5037436;28;20521;-72
2021/07/12 13:12:40;;;;;;;8.80;4.40;;;;;;;;;;5053660;28;21124;-73
2021/07/12 13:15:25;;;;;;;8.77;4.10;;;;;;;;;;5043109;28;20493;-72
2021/07/12 13:18:06;;;;;;;4.40;3.43;;;;;;;;;;5072335;28;20461;-72
2021/07/12 13:20:38;;;;;;;5.40;4.10;;;;;;;;;;5076937;28;20445;-72
2021/07/12 13:23:13;;;;;;;6.27;3.77;;;;;;;;;;5078337;28;20571;-73
2021/07/12 13:25:49;;;;;;;4.87;3.73;;;;;;;;;;5062423;28;21005;-72
2021/07/12 13:28:18;;;;;;;5.43;4.10;;;;;;;;;;5056382;28;20465;-72
2021/07/12 13:30:56;;;;;;;8.67;4.57;;;;;;;;;;5055888;28;20454;-73
2021/07/12 13:33:37;;;;;;;;;;;;;;;;;;;;;
2021/07/12 13:36:09;;;;;;;6.60;5.20;;;;;;;;;;5054542;28;20461;-73
2021/07/12 13:38:45;;;;;;;7.17;4.97;;;;;;;;;;5064678;28;21407;-73
2021/07/12 13:41:29;;;;;;;6.17;4.97;;;;;;;;;;5042091;28;20459;-73
2021/07/12 13:47:24;;;;;;;9.30;4.93;;;;;;;;;;4958888;28;21037;-72
2021/07/12 13:49:55;;;;;;;6.67;5.20;;;;;;;;;;5059163;28;20550;-72
2021/07/12 13:52:28;;;;;;;5.80;5.07;;;;;;;;;;5060839;28;20596;-72
2021/07/12 13:55:01;;;;;;;7.93;5.10;;;;;;;;;;5060565;28;20504;-72
2021/07/12 13:57:46;;;;;;;6.40;5.03;;;;;;;;;;5061804;28;20453;-72
2021/07/12 14:00:19;;;;;;;6.50;5.27;;;;;;;;;;5061771;28;20909;-72
2021/07/12 14:02:54;;;;;;;6.63;5.43;;;;;;;;;;5060536;28;20764;-72
2021/07/12 14:05:29;;;;;;;7.40;5.70;;;;;;;;;;5061599;28;20749;-73
2021/07/12 14:08:02;;;;;;;7.97;6.00;;;;;;;;;;5062336;28;20983;-72
2021/07/12 14:10:33;;;;;;;6.60;5.13;;;;;;;;;;5059081;28;20564;-72
2021/07/12 14:13:12;;;;;;;9.03;5.03;;;;;;;;;;5068715;28;20455;-73
2021/07/12 14:15:49;;;;;;;6.07;4.33;;;;;;;;;;5060180;28;20744;-73
2021/07/12 14:18:24;;;;;;;6.97;4.77;;;;;;;;;;5056971;28;20461;-73
2021/07/12 14:20:52;;;;;;;6.50;4.63;;;;;;;;;;5060193;28;20564;-74
2021/07/12 14:23:35;;;;;;;5.10;4.57;;;;;;;;;;5061658;28;20522;-73
2021/07/12 14:26:09;;;;;;;5.30;4.10;;;;;;;;;;5042896;28;20547;-72
2021/07/12 14:28:45;;;;;;;6.83;4.37;;;;;;;;;;5060701;28;20489;-73
2021/07/12 14:31:18;;;;;;;6.83;4.20;;;;;;;;;;5058597;28;20462;-71
2021/07/12 14:33:49;;;;;;;5.20;4.27;;;;;;;;;;5057492;28;20489;-71
2021/07/12 14:36:32;;;;;;;6.47;4.27;;;;;;;;;;5059632;28;20461;-71
2021/07/12 14:39:09;;;;;;;6.80;4.10;;;;;;;;;;5044495;28;20538;-72
2021/07/12 14:41:41;;;;;;;6.70;4.90;;;;;;;;;;5058509;28;20433;-72
2021/07/12 14:44:13;;;;;;;5.27;4.70;;;;;;;;;;5059314;28;20934;-72
2021/07/12 14:46:44;;;;;;;7.17;4.80;;;;;;;;;;5060076;28;20880;-72
2021/07/12 14:49:15;;;;;;;8.13;5.40;;;;;;;;;;5060596;28;20530;-71
2021/07/12 14:51:48;;;;;;;8.13;5.60;;;;;;;;;;5060357;28;20457;-71
2021/07/12 14:54:16;;;;;;;17.97;13.20;;;;;;;;;;5059234;28;20552;-71
2021/07/12 14:56:44;;;;;;;5.13;4.10;;;;;;;;;;5056956;28;20458;-72
2021/07/12 14:59:12;;;;;;;6.47;4.73;;;;;;;;;;5058274;28;20465;-73
2021/07/12 15:01:40;;;;;;;6.27;5.03;;;;;;;;;;5060579;28;20527;-72